Time,TemperatureF,DewpointF,PressureIn,WindDirection,WindDirectionDegrees,WindSpeedMPH,WindSpeedGustMPH,Humidity,HourlyPrecipIn,Conditions,Clouds,dailyrainin,SolarRadiationWatts/m^2,SoftwareType,DateUTC
2013-11-03 00:04:00,35.6,32.0,30.10,SE,124,0.0,-999.0,86,-99.99,,,0.00,0,weatherlink.com 1.10,2013-11-03 05:04:00,
2013-11-03 00:19:00,35.6,32.0,30.09,SE,124,0.0,-999.0,87,-99.99,,,0.00,0,weatherlink.com 1.10,2013-11-03 05:19:00,
2013-11-03 00:38:00,35.6,32.0,30.10,SE,124,0.0,-999.0,87,-99.99,,,0.00,0,weatherlink.com 1.10,2013-11-03 05:38:00,
2013-11-03 00:49:00,36.3,33.0,30.10,SE,124,0.0,-999.0,86,-99.99,,,0.00,0,weatherlink.com 1.10,2013-11-03 05:49:00,
2013-11-03 01:04:00,36.5,32.0,30.11,SE,124,0.0,-999.0,84,-99.99,,,0.00,0,weatherlink.com 1.10,2013-11-03 06:04:00,
2013-11-03 01:19:00,36.6,32.0,30.11,SE,124,0.0,-999.0,83,-99.99,,,0.00,0,weatherlink.com 1.10,2013-11-03 06:19:00,
2013-11-03 01:34:00,36.0,31.0,30.11,SE,124,0.0,-999.0,83,-99.99,,,0.00,0,weatherlink.com 1.10,2013-11-03 06:34:00,
2013-11-03 01:49:00,35.5,31.0,30.12,SE,124,0.0,-999.0,84,-99.99,,,0.00,0,weatherlink.com 1.10,2013-11-03 06:49:00,
2013-11-03 01:04:00,34.9,31.0,30.12,SE,124,0.0,-999.0,85,-99.99,,,0.00,0,weatherlink.com 1.10,2013-11-03 07:04:00,
2013-11-03 01:19:00,34.7,31.0,30.11,SE,124,0.0,-999.0,86,-99.99,,,0.00,0,weatherlink.com 1.10,2013-11-03 07:19:00,
2013-11-03 01:34:00,35.2,32.0,30.11,SE,124,0.0,-999.0,87,-99.99,,,0.00,0,weatherlink.com 1.10,2013-11-03 07:34:00,
2013-11-03 01:58:00,36.5,32.0,30.11,SE,124,0.0,-999.0,83,-99.99,,,0.00,0,weatherlink.com 1.10,2013-11-03 07:58:00,
2013-11-03 02:04:00,36.5,32.0,30.11,SE,124,0.0,-999.0,83,-99.99,,,0.00,0,weatherlink.com 1.10,2013-11-03 08:04:00,
2013-11-03 02:19:00,36.6,32.0,30.10,North,5,0.0,-999.0,82,-99.99,,,0.00,0,weatherlink.com 1.10,2013-11-03 08:19:00,
2013-11-03 02:34:00,36.3,31.0,30.10,North,5,0.0,-999.0,81,-99.99,,,0.00,0,weatherlink.com 1.10,2013-11-03 08:34:00,
2013-11-03 02:49:00,35.8,31.0,30.11,North,5,0.0,-999.0,82,-99.99,,,0.00,0,weatherlink.com 1.10,2013-11-03 08:49:00,
2013-11-03 03:06:00,35.5,31.0,30.11,North,5,0.0,-999.0,83,-99.99,,,0.00,0,weatherlink.com 1.10,2013-11-03 09:06:00,
2013-11-03 03:19:00,35.9,31.0,30.11,North,5,0.0,-999.0,83,-99.99,,,0.00,0,weatherlink.com 1.10,2013-11-03 09:19:00,
2013-11-03 03:34:00,35.9,31.0,30.10,North,5,0.0,-999.0,82,-99.99,,,0.00,0,weatherlink.com 1.10,2013-11-03 09:34:00,
2013-11-03 03:49:00,35.8,31.0,30.10,NNW,338,0.0,-999.0,83,-99.99,,,0.00,0,weatherlink.com 1.10,2013-11-03 09:49:00,
2013-11-03 04:04:00,35.9,31.0,30.10,NNW,338,0.0,-999.0,82,-99.99,,,0.00,0,weatherlink.com 1.10,2013-11-03 10:04:00,
2013-11-03 04:19:00,36.0,31.0,30.10,NNW,338,0.0,-999.0,82,-99.99,,,0.00,0,weatherlink.com 1.10,2013-11-03 10:19:00,
2013-11-03 04:34:00,35.6,31.0,30.10,NNW,338,0.0,-999.0,82,-99.99,,,0.00,0,weatherlink.com 1.10,2013-11-03 10:34:00,
2013-11-03 04:49:00,35.3,31.0,30.11,NNW,338,0.0,-999.0,83,-99.99,,,0.00,0,weatherlink.com 1.10,2013-11-03 10:49:00,
2013-11-03 05:04:00,34.9,30.0,30.11,NNW,338,0.0,-999.0,83,-99.99,,,0.00,0,weatherlink.com 1.10,2013-11-03 11:04:00,
2013-11-03 05:26:00,34.1,30.0,30.12,NNW,338,0.0,-999.0,84,-99.99,,,0.00,0,weatherlink.com 1.10,2013-11-03 11:26:00,
2013-11-03 05:34:00,34.1,30.0,30.12,NNW,338,0.0,-999.0,85,-99.99,,,0.00,0,weatherlink.com 1.10,2013-11-03 11:34:00,
2013-11-03 05:49:00,33.8,30.0,30.11,NNW,338,0.0,-999.0,85,-99.99,,,0.00,0,weatherlink.com 1.10,2013-11-03 11:49:00,
2013-11-03 06:04:00,33.5,30.0,30.11,NNW,338,0.0,-999.0,86,-99.99,,,0.00,0,weatherlink.com 1.10,2013-11-03 12:04:00,
2013-11-03 06:19:00,33.4,30.0,30.12,NNW,338,0.0,-999.0,86,-99.99,,,0.00,0,weatherlink.com 1.10,2013-11-03 12:19:00,
2013-11-03 06:37:00,32.9,29.0,30.12,NNW,338,0.0,-999.0,86,-99.99,,,0.00,0,weatherlink.com 1.10,2013-11-03 12:37:00,
2013-11-03 06:49:00,33.1,30.0,30.11,NNW,338,0.0,-999.0,87,-99.99,,,0.00,0,weatherlink.com 1.10,2013-11-03 12:49:00,
2013-11-03 07:04:00,33.8,30.0,30.11,NNE,19,0.0,-999.0,87,-99.99,,,0.00,9,weatherlink.com 1.10,2013-11-03 13:04:00,
2013-11-03 07:19:00,34.4,31.0,30.12,NW,326,0.0,-999.0,86,-99.99,,,0.00,14,weatherlink.com 1.10,2013-11-03 13:19:00,
2013-11-03 07:34:00,35.5,31.0,30.12,WNW,303,0.0,-999.0,84,-99.99,,,0.00,19,weatherlink.com 1.10,2013-11-03 13:34:00,
2013-11-03 07:49:00,36.2,32.0,30.11,NW,323,0.0,-999.0,83,-99.99,,,0.00,23,weatherlink.com 1.10,2013-11-03 13:49:00,
2013-11-03 08:04:00,38.5,33.0,30.11,NNW,335,3.0,-999.0,80,-99.99,,,0.00,28,weatherlink.com 1.10,2013-11-03 14:04:00,
2013-11-03 08:19:00,40.6,33.0,30.11,North,9,3.0,-999.0,75,-99.99,,,0.00,32,weatherlink.com 1.10,2013-11-03 14:19:00,
2013-11-03 08:34:00,42.2,34.0,30.11,North,10,4.0,-999.0,73,-99.99,,,0.00,35,weatherlink.com 1.10,2013-11-03 14:34:00,
2013-11-03 08:56:00,44.9,36.0,30.10,NNW,329,3.0,-999.0,70,-99.99,,,0.00,174,weatherlink.com 1.10,2013-11-03 14:56:00,
2013-11-03 09:04:00,46.5,35.0,30.10,NNW,333,3.0,-999.0,65,-99.99,,,0.00,257,weatherlink.com 1.10,2013-11-03 15:04:00,
2013-11-03 09:19:00,48.8,37.0,30.09,NNW,340,2.0,-999.0,63,-99.99,,,0.00,179,weatherlink.com 1.10,2013-11-03 15:19:00,
2013-11-03 09:34:00,49.8,35.0,30.09,NE,53,7.0,-999.0,58,-99.99,,,0.00,364,weatherlink.com 1.10,2013-11-03 15:34:00,
2013-11-03 09:50:00,50.5,36.0,30.09,NNW,339,14.0,-999.0,57,-99.99,,,0.00,420,weatherlink.com 1.10,2013-11-03 15:50:00,
2013-11-03 10:08:00,52.0,36.0,30.08,North,5,7.0,-999.0,55,-99.99,,,0.00,455,weatherlink.com 1.10,2013-11-03 16:08:00,
2013-11-03 10:20:00,52.9,36.0,30.07,NNW,346,6.0,-999.0,54,-99.99,,,0.00,480,weatherlink.com 1.10,2013-11-03 16:20:00,
2013-11-03 10:35:00,53.2,35.0,30.07,NNE,25,10.0,-999.0,50,-99.99,,,0.00,503,weatherlink.com 1.10,2013-11-03 16:35:00,
2013-11-03 10:50:00,53.5,35.0,30.06,NNE,12,14.0,-999.0,50,-99.99,,,0.00,527,weatherlink.com 1.10,2013-11-03 16:50:00,
2013-11-03 11:05:00,53.9,33.0,30.06,NNW,340,9.0,-999.0,46,-99.99,,,0.00,538,weatherlink.com 1.10,2013-11-03 17:05:00,
2013-11-03 11:20:00,55.0,36.0,30.04,NNW,332,6.0,-999.0,49,-99.99,,,0.00,563,weatherlink.com 1.10,2013-11-03 17:20:00,
2013-11-03 11:35:00,54.7,36.0,30.04,NE,48,6.0,-999.0,49,-99.99,,,0.00,439,weatherlink.com 1.10,2013-11-03 17:35:00,
2013-11-03 11:50:00,55.1,34.0,30.02,NNW,344,6.0,-999.0,46,-99.99,,,0.00,615,weatherlink.com 1.10,2013-11-03 17:50:00,
2013-11-03 12:05:00,55.6,34.0,30.01,North,9,10.0,-999.0,44,-99.99,,,0.00,341,weatherlink.com 1.10,2013-11-03 18:05:00,
2013-11-03 12:28:00,54.8,33.0,30.00,North,351,10.0,-999.0,44,-99.99,,,0.00,213,weatherlink.com 1.10,2013-11-03 18:28:00,
2013-11-03 12:35:00,55.4,34.0,29.99,NW,309,11.0,-999.0,44,-99.99,,,0.00,257,weatherlink.com 1.10,2013-11-03 18:35:00,
2013-11-03 12:50:00,56.0,32.0,29.98,NNE,24,4.0,-999.0,41,-99.99,,,0.00,244,weatherlink.com 1.10,2013-11-03 18:50:00,
2013-11-03 13:05:00,56.6,34.0,29.97,NW,307,6.0,-999.0,43,-99.99,,,0.00,290,weatherlink.com 1.10,2013-11-03 19:05:00,
2013-11-03 13:20:00,56.3,33.0,29.96,NNW,329,4.0,-999.0,41,-99.99,,,0.00,269,weatherlink.com 1.10,2013-11-03 19:20:00,
2013-11-03 13:39:00,56.5,33.0,29.96,WNW,292,7.0,-999.0,42,-99.99,,,0.00,206,weatherlink.com 1.10,2013-11-03 19:39:00,
2013-11-03 13:50:00,56.0,32.0,29.95,NNW,332,14.0,-999.0,40,-99.99,,,0.00,178,weatherlink.com 1.10,2013-11-03 19:50:00,
2013-11-03 14:05:00,55.7,32.0,29.94,North,355,6.0,-999.0,41,-99.99,,,0.00,220,weatherlink.com 1.10,2013-11-03 20:05:00,
2013-11-03 14:20:00,55.9,32.0,29.94,NW,319,10.0,-999.0,41,-99.99,,,0.00,144,weatherlink.com 1.10,2013-11-03 20:20:00,
2013-11-03 14:35:00,55.4,33.0,29.93,NNW,336,4.0,-999.0,43,-99.99,,,0.00,142,weatherlink.com 1.10,2013-11-03 20:35:00,
2013-11-03 14:50:00,55.3,33.0,29.93,NNW,336,4.0,-999.0,43,-99.99,,,0.00,120,weatherlink.com 1.10,2013-11-03 20:50:00,
2013-11-03 15:05:00,55.1,33.0,29.93,NNW,344,6.0,-999.0,44,-99.99,,,0.00,102,weatherlink.com 1.10,2013-11-03 21:05:00,
2013-11-03 15:20:00,55.0,34.0,29.93,NNW,329,4.0,-999.0,46,-99.99,,,0.00,83,weatherlink.com 1.10,2013-11-03 21:20:00,
2013-11-03 15:35:00,54.5,33.0,29.93,NNW,340,7.0,-999.0,45,-99.99,,,0.00,69,weatherlink.com 1.10,2013-11-03 21:35:00,
2013-11-03 15:58:00,53.9,35.0,29.92,North,5,5.0,-999.0,49,-99.99,,,0.00,44,weatherlink.com 1.10,2013-11-03 21:58:00,
2013-11-03 16:05:00,53.6,34.0,29.91,WNW,297,17.0,-999.0,48,-99.99,,,0.00,37,weatherlink.com 1.10,2013-11-03 22:05:00,
2013-11-03 16:20:00,53.5,34.0,29.91,NW,311,6.0,-999.0,47,-99.99,,,0.00,32,weatherlink.com 1.10,2013-11-03 22:20:00,
2013-11-03 16:35:00,53.3,34.0,29.92,North,355,12.0,-999.0,48,-99.99,,,0.00,16,weatherlink.com 1.10,2013-11-03 22:35:00,
2013-11-03 16:50:00,52.9,35.0,29.91,NNW,347,4.0,-999.0,50,-99.99,,,0.00,5,weatherlink.com 1.10,2013-11-03 22:50:00,
2013-11-03 17:07:00,52.6,35.0,29.92,North,355,3.0,-999.0,51,-99.99,,,0.00,0,weatherlink.com 1.10,2013-11-03 23:07:00,
2013-11-03 17:20:00,52.3,35.0,29.92,NNE,15,1.0,-999.0,52,-99.99,,,0.00,0,weatherlink.com 1.10,2013-11-03 23:20:00,
2013-11-03 17:35:00,52.2,35.0,29.92,North,355,4.0,-999.0,52,-99.99,,,0.00,0,weatherlink.com 1.10,2013-11-03 23:35:00,
2013-11-03 17:50:00,51.7,35.0,29.91,NW,321,6.0,-999.0,53,-99.99,,,0.00,0,weatherlink.com 1.10,2013-11-03 23:50:00,
2013-11-03 18:05:00,51.4,36.0,29.91,NW,318,6.0,-999.0,55,-99.99,,,0.00,0,weatherlink.com 1.10,2013-11-04 00:05:00,
2013-11-03 18:20:00,51.0,36.0,29.91,NW,325,4.0,-999.0,56,-99.99,,,0.00,0,weatherlink.com 1.10,2013-11-04 00:20:00,
2013-11-03 18:35:00,51.0,36.0,29.91,West,273,10.0,-999.0,57,-99.99,,,0.00,0,weatherlink.com 1.10,2013-11-04 00:35:00,
2013-11-03 18:50:00,50.8,36.0,29.91,NW,318,4.0,-999.0,57,-99.99,,,0.00,0,weatherlink.com 1.10,2013-11-04 00:50:00,
2013-11-03 19:05:00,50.7,36.0,29.91,NW,317,7.0,-999.0,57,-99.99,,,0.00,0,weatherlink.com 1.10,2013-11-04 01:05:00,
2013-11-03 19:26:00,50.5,36.0,29.90,North,355,7.0,-999.0,57,-99.99,,,0.00,0,weatherlink.com 1.10,2013-11-04 01:26:00,
2013-11-03 19:35:00,50.7,36.0,29.89,NNW,346,1.0,-999.0,57,-99.99,,,0.00,0,weatherlink.com 1.10,2013-11-04 01:35:00,
2013-11-03 19:50:00,50.4,35.0,29.89,WNW,295,5.0,-999.0,57,-99.99,,,0.00,0,weatherlink.com 1.10,2013-11-04 01:50:00,
2013-11-03 20:05:00,50.4,35.0,29.89,NNW,342,5.0,-999.0,57,-99.99,,,0.00,0,weatherlink.com 1.10,2013-11-04 02:05:00,
2013-11-03 20:20:00,50.5,36.0,29.87,NW,309,9.0,-999.0,57,-99.99,,,0.00,0,weatherlink.com 1.10,2013-11-04 02:20:00,
2013-11-03 20:37:00,50.7,35.0,29.87,NW,304,20.0,-999.0,56,-99.99,,,0.00,0,weatherlink.com 1.10,2013-11-04 02:37:00,
2013-11-03 20:50:00,51.0,36.0,29.88,NNW,331,5.0,-999.0,56,-99.99,,,0.00,0,weatherlink.com 1.10,2013-11-04 02:50:00,
2013-11-03 21:05:00,51.3,35.0,29.89,North,350,6.0,-999.0,55,-99.99,,,0.00,0,weatherlink.com 1.10,2013-11-04 03:05:00,
2013-11-03 21:20:00,51.3,35.0,29.89,NNW,339,3.0,-999.0,55,-99.99,,,0.00,0,weatherlink.com 1.10,2013-11-04 03:20:00,
2013-11-03 21:35:00,51.3,36.0,29.89,North,355,4.0,-999.0,56,-99.99,,,0.00,0,weatherlink.com 1.10,2013-11-04 03:35:00,
2013-11-03 21:50:00,51.1,36.0,29.90,NNW,338,11.0,-999.0,56,-99.99,,,0.00,0,weatherlink.com 1.10,2013-11-04 03:50:00,
2013-11-03 22:05:00,50.8,36.0,29.90,NW,309,12.0,-999.0,57,-99.99,,,0.00,0,weatherlink.com 1.10,2013-11-04 04:05:00,
2013-11-03 22:20:00,50.4,36.0,29.90,North,360,5.0,-999.0,58,-99.99,,,0.00,0,weatherlink.com 1.10,2013-11-04 04:20:00,
2013-11-03 22:35:00,49.8,36.0,29.89,NNW,344,5.0,-999.0,59,-99.99,,,0.00,0,weatherlink.com 1.10,2013-11-04 04:35:00,
2013-11-03 22:57:00,48.9,36.0,29.89,WNW,299,9.0,-999.0,61,-99.99,,,0.00,0,weatherlink.com 1.10,2013-11-04 04:57:00,
2013-11-03 23:05:00,48.9,36.0,29.88,NNW,348,5.0,-999.0,62,-99.99,,,0.00,0,weatherlink.com 1.10,2013-11-04 05:05:00,
2013-11-03 23:20:00,49.2,36.0,29.88,North,11,7.0,-999.0,61,-99.99,,,0.00,0,weatherlink.com 1.10,2013-11-04 05:20:00,
2013-11-03 23:35:00,49.2,37.0,29.88,NNW,337,4.0,-999.0,62,-99.99,,,0.00,0,weatherlink.com 1.10,2013-11-04 05:35:00,
2013-11-03 23:50:00,49.6,36.0,29.87,NNW,347,5.0,-999.0,61,-99.99,,,0.00,0,weatherlink.com 1.10,2013-11-04 05:50:00,